Flight Track Log - Related Links

Times and Time Zones

All times are in EDT time to prevent confusion due to time zone crossing. See the SWA1193 flight status page for this flight to view local times or setup timezone preferences in your user account.

Time Position Orientation Groundspeed Altitude Reporting Facility
EDT Latitude Longitude Course Direction KTS MPH feet Rate Location/Type
Sat 07:16:58 PM 39.9333 -104.6333 90° East 202 232 7,600  Level Denver TRACON
Sat 07:18:03 PM 39.9333 -104.5333 90° East 273 314 10,100 1,920 Climbing Denver TRACON
Sat 07:19:03 PM 39.9167 -104.4333 102° East 331 381 11,600 1,438 Climbing Denver TRACON
Sat 07:20:04 PM 39.8833 -104.3167 110° East 361 415 13,000 1,957 Climbing Denver TRACON
Sat 07:21:21 PM 39.8772 -104.1375 92° East 382 440 16,100 2,547 Climbing Denver Center
Sat 07:22:23 PM 39.8792 -103.9925 89° East 398 458 18,900 2,565 Climbing Denver Center
Sat 07:23:25 PM 39.8817 -103.8353 89° East 398 458 21,400 2,293 Climbing Denver Center
Sat 07:24:26 PM 39.8886 -103.6861 86° East 411 473 23,600 2,000 Climbing Denver Center
Sat 07:25:28 PM 39.9064 -103.5311 81° East 431 496 25,500 1,839 Climbing Denver Center
Sat 07:26:30 PM 39.9253 -103.3708 81° East 443 510 27,400 1,645 Climbing Denver Center
Sat 07:27:32 PM 39.9436 -103.2061 82° East 454 522 28,900 1,452 Climbing Denver Center
Sat 07:28:34 PM 39.9628 -103.0369 82° East 468 539 30,400 1,707 Climbing Denver Center
Sat 07:29:35 PM 40.0083 -102.8356 73° East 480 552 32,400 1,756 Climbing Denver Center
Sat 07:30:37 PM 40.0492 -102.6683 72° East 483 556 34,000 1,452 Climbing Denver Center
Sat 07:31:39 PM 40.0908 -102.5100 71° East 483 556 35,400 1,452 Climbing Denver Center
Sat 07:32:41 PM 40.1369 -102.3272 72° East 479 551 37,000 774 Climbing Denver Center
Sat 07:33:43 PM 40.1778 -102.1714 71° East 476 548 37,000  Level Denver Center
Sat 07:34:45 PM 40.2247 -101.9894 71° East 475 547 37,000  Level Denver Center
Sat 07:35:46 PM 40.2614 -101.8347 73° East 471 542 37,000  Level Denver Center
Sat 07:36:48 PM 40.2906 -101.6744 77° East 471 542 37,000  Level Denver Center
Sat 07:37:51 PM 40.3208 -101.4861 78° East 471 542 37,000  Level Denver Center
Sat 07:38:52 PM 40.3392 -101.3258 81° East 471 542 37,000  Level Denver Center
Sat 07:39:54 PM 40.3531 -101.1353 84° East 469 540 37,000  Level Denver Center
Sat 07:40:56 PM 40.3639 -100.9736 85° East 470 541 37,000  Level Denver Center
Sat 07:41:58 PM 40.3758 -100.7828 85° East 473 544 37,000  Level Denver Center
Sat 07:43:00 PM 40.3881 -100.6192 84° East 473 544 37,000  Level Denver Center
Sat 07:44:02 PM 40.3997 -100.4275 85° East 474 545 37,000  Level Denver Center
Sat 07:45:04 PM 40.4106 -100.2633 85° East 476 548 37,000  Level Denver Center
Sat 07:46:06 PM 40.4219 -100.0697 86° East 476 548 37,000  Level Denver Center
Sat 07:47:08 PM 40.4328 -99.9017 85° East 482 555 37,000  Level Denver Center
Sat 07:48:10 PM 40.4447 -99.7106 85° East 482 555 37,000  Level Denver Center
Sat 07:49:12 PM 40.4556 -99.5358 85° East 482 555 37,000  Level Denver Center
Sat 07:50:14 PM 40.4647 -99.3622 86° East 481 554 37,000  Level Denver Center
Sat 07:51:16 PM 40.4747 -99.1883 86° East 481 554 37,000  Level Denver Center
Sat 07:52:18 PM 40.4858 -98.9814 86° East 479 551 37,000  Level Denver Center
Sat 07:53:20 PM 40.4944 -98.8092 86° East 478 550 37,000  Level Denver Center
Sat 07:54:22 PM 40.5042 -98.6372 86° East 478 550 37,000 532 Level Denver Center
Sat 07:55:24 PM 40.5119 -98.4644 87° East 478 550 38,100 968 Climbing Denver Center
Sat 07:56:26 PM 40.5200 -98.2931 86° East 478 550 39,000 435 Climbing Minneapolis Center
Sat 07:57:28 PM 40.5289 -98.0856 87° East 478 550 39,000  Level Minneapolis Center
Sat 07:58:29 PM 40.5372 -97.9128 86° East 478 550 39,000  Level Minneapolis Center
Sat 07:59:31 PM 40.5450 -97.7394 87° East 478 550 39,000  Level Minneapolis Center
Sat 08:00:32 PM 40.5517 -97.5658 87° East 478 550 39,000  Level Minneapolis Center
Sat 08:01:33 PM 40.5589 -97.3922 87° East 478 550 39,000  Level Minneapolis Center
Sat 08:02:35 PM 40.5650 -97.2094 87° East 478 550 39,000  Level Minneapolis Center
Sat 08:03:36 PM 40.5719 -97.0339 87° East 478 550 39,000  Level Minneapolis Center
Sat 08:04:37 PM 40.5778 -96.8600 87° East 478 550 39,000  Level Minneapolis Center
Sat 08:05:39 PM 40.5833 -96.6869 88° East 478 550 39,000  Level Minneapolis Center
Sat 08:06:40 PM 40.5889 -96.5136 88° East 478 550 39,000  Level Minneapolis Center
Sat 08:07:41 PM 40.5942 -96.3425 88° East 475 547 39,000  Level Minneapolis Center
Sat 08:08:43 PM 40.5997 -96.1378 88° East 473 544 39,000  Level Minneapolis Center
Sat 08:09:44 PM 40.6047 -95.9683 88° East 470 541 39,000  Level Minneapolis Center
Sat 08:10:45 PM 40.6103 -95.7975 87° East 470 541 39,000  Level Minneapolis Center
Sat 08:11:46 PM 40.6133 -95.6283 89° East 469 540 39,000  Level Minneapolis Center
Sat 08:12:48 PM 40.6178 -95.4586 88° East 469 540 39,000  Level Minneapolis Center
Sat 08:13:49 PM 40.6200 -95.2889 89° East 469 540 39,000  Level Minneapolis Center
Sat 08:14:50 PM 40.6242 -95.1189 88° East 468 539 39,000  Level Minneapolis Center
Sat 08:15:52 PM 40.6278 -94.9511 88° East 468 539 39,000  Level Minneapolis Center
Sat 08:16:53 PM 40.6308 -94.7833 89° East 465 535 39,000  Level Minneapolis Center
Sat 08:17:54 PM 40.6333 -94.5842 89° East 460 529 39,000  Level Minneapolis Center
Sat 08:18:55 PM 40.6353 -94.4178 89° East 457 526 39,000  Level Minneapolis Center
Sat 08:19:57 PM 40.6367 -94.2564 89° East 450 518 39,000  Level Minneapolis Center
Sat 08:20:58 PM 40.6394 -94.0944 89° East 448 516 39,000  Level Minneapolis Center
Sat 08:21:59 PM 40.6417 -93.9328 89° East 448 516 39,000  Level Minneapolis Center
Sat 08:23:01 PM 40.6436 -93.7711 89° East 448 516 39,000  Level Minneapolis Center
Sat 08:24:02 PM 40.6447 -93.6100 89° East 445 512 39,000  Level Minneapolis Center
Sat 08:25:57 PM 40.6447 -93.2844 90° East 445 512 39,000  Level Chicago Center
Sat 08:26:59 PM 40.6475 -93.1189 89° East 448 516 39,000  Level Chicago Center
Sat 08:28:00 PM 40.6475 -92.9536 90° East 449 517 39,000  Level Chicago Center
Sat 08:29:02 PM 40.6481 -92.7883 90° East 449 517 39,000  Level Chicago Center
Sat 08:30:04 PM 40.6478 -92.6211 90° East 452 520 39,000  Level Chicago Center
Sat 08:31:06 PM 40.6469 -92.4200 90° East 454 522 39,000  Level Chicago Center
Sat 08:32:07 PM 40.6461 -92.2525 90° East 455 524 39,000  Level Chicago Center
Sat 08:33:09 PM 40.6456 -92.0847 90° East 455 524 39,000  Level Chicago Center
Sat 08:34:11 PM 40.6450 -91.9211 90° East 455 524 39,000  Level Chicago Center
Sat 08:35:12 PM 40.6411 -91.7550 92° East 455 524 39,000  Level Chicago Center
Sat 08:36:14 PM 40.6397 -91.5914 91° East 455 524 39,000  Level Chicago Center
Sat 08:37:16 PM 40.6383 -91.4278 91° East 451 519 39,000  Level Chicago Center
Sat 08:38:18 PM 40.6356 -91.2600 91° East 451 519 39,000  Level Chicago Center
Sat 08:39:19 PM 40.6322 -91.0619 91° East 453 521 39,000  Level Chicago Center
Sat 08:40:21 PM 40.6303 -90.8986 91° East 449 517 39,000  Level Chicago Center
Sat 08:41:22 PM 40.6267 -90.7347 92° East 449 517 39,000  Level Chicago Center
Sat 08:42:24 PM 40.6244 -90.5706 91° East 451 519 39,000  Level Chicago Center
Sat 08:43:26 PM 40.6217 -90.4067 91° East 451 519 39,000  Level Chicago Center
Sat 08:44:27 PM 40.6175 -90.2461 92° East 451 519 39,000  Level Chicago Center
Sat 08:45:29 PM 40.6125 -90.0497 92° East 451 519 39,000  Level Chicago Center
Sat 08:46:30 PM 40.6064 -89.8847 93° East 452 520 39,000  Level Chicago Center
Sat 08:47:32 PM 40.6017 -89.7175 92° East 456 525 39,000  Level Chicago Center
Sat 08:48:33 PM 40.5981 -89.5539 92° East 448 516 39,000  Level Chicago Center
Sat 08:49:35 PM 40.5936 -89.3939 92° East 454 522 39,000  Level Chicago Center
Sat 08:50:36 PM 40.5889 -89.2272 92° East 455 524 39,000  Level Chicago Center
Sat 08:51:38 PM 40.5839 -89.0600 92° East 457 526 39,000  Level Chicago Center
Sat 08:52:39 PM 40.5775 -88.8594 92° East 458 527 39,000  Level Chicago Center
Sat 08:53:41 PM 40.5711 -88.6858 93° East 465 535 39,000  Level Chicago Center
Sat 08:54:42 PM 40.5647 -88.5197 93° East 462 532 39,000  Level Chicago Center
Sat 08:55:43 PM 40.5594 -88.3519 92° East 463 533 39,000  Level Chicago Center
Sat 08:56:45 PM 40.5531 -88.1872 93° East 460 529 39,000  Level Chicago Center
Sat 08:57:46 PM 40.5453 -88.0186 93° East 459 528 39,000  Level Chicago Center
Sat 08:58:47 PM 40.5383 -87.8492 93° East 463 533 39,000  Level Chicago Center
Sat 08:59:49 PM 40.5308 -87.6789 93° East 465 535 39,000  Level Chicago Center
Sat 09:00:50 PM 40.5222 -87.4700 93° East 475 547 39,000  Level Chicago Center
Sat 09:01:51 PM 40.5133 -87.2989 94° East 475 547 39,000  Level Chicago Center
Sat 09:02:53 PM 40.5044 -87.1242 94° East 476 548 39,000  Level Chicago Center
Sat 09:03:54 PM 40.4975 -86.9678 93° East 483 556 39,000  Level Chicago Center
Sat 09:04:55 PM 40.4858 -86.7558 94° East 483 556 39,000  Level Chicago Center
Sat 09:05:57 PM 40.4775 -86.5775 93° East 485 558 39,000  Level Chicago Center
Sat 09:06:58 PM 40.4678 -86.4000 94° East 486 559 39,000  Level Chicago Center
Sat 09:07:59 PM 40.4575 -86.2231 94° East 485 558 39,000  Level Chicago Center
Sat 09:09:01 PM 40.4469 -86.0453 94° East 487 560 39,000  Level Chicago Center
Sat 09:10:02 PM 40.4356 -85.8664 95° East 487 560 39,000  Level Chicago Center
Sat 09:11:03 PM 40.4253 -85.6875 94° East 489 563 39,000  Level Chicago Center
Sat 09:12:04 PM 40.4133 -85.5078 95° East 491 565 39,000  Level Chicago Center
Sat 09:13:06 PM 40.4022 -85.3286 95° East 492 566 39,000  Level Chicago Center
Sat 09:14:07 PM 40.3892 -85.1464 95° East 497 572 39,000  Level Chicago Center
Sat 09:15:08 PM 40.3778 -84.9650 95° East 501 577 39,000  Level Chicago Center
Sat 09:16:10 PM 40.3656 -84.7831 95° East 502 578 39,000  Level Chicago Center
Sat 09:17:14 PM 40.3497 -84.5775 96° East 499 574 39,000  Level Cleveland Center
Sat 09:18:15 PM 40.3358 -84.3950 96° East 501 577 39,000  Level Cleveland Center
Sat 09:19:30 PM 40.3206 -84.1736 95° East 503 579 39,000  Level Indianapolis Center
Sat 09:20:31 PM 40.3031 -83.9514 96° East 504 580 39,000  Level Indianapolis Center
Sat 09:21:32 PM 40.2894 -83.7661 95° East 507 583 39,000  Level Indianapolis Center
Sat 09:22:33 PM 40.2744 -83.5800 96° East 507 583 39,000  Level Indianapolis Center
Sat 09:23:34 PM 40.2597 -83.3928 96° East 508 585 39,000  Level Indianapolis Center
Sat 09:24:34 PM 40.2442 -83.2069 96° East 508 585 39,000  Level Indianapolis Center
Sat 09:25:35 PM 40.2092 -83.0250 104° East 509 586 39,000  Level Indianapolis Center
Sat 09:26:36 PM 40.1744 -82.8442 104° East 513 590 39,000  Level Indianapolis Center
Sat 09:27:37 PM 40.1383 -82.6625 105° East 513 590 39,000  Level Indianapolis Center
Sat 09:28:38 PM 40.1039 -82.4794 104° East 514 592 39,000  Level Indianapolis Center
Sat 09:29:39 PM 40.0672 -82.2964 105° East 515 593 39,000  Level Indianapolis Center
Sat 09:30:40 PM 40.0303 -82.1111 105° East 523 602 39,000  Level Indianapolis Center
Sat 09:31:40 PM 39.9933 -81.9281 105° East 523 602 39,000  Level Indianapolis Center
Sat 09:32:41 PM 39.9561 -81.7458 105° East 523 602 39,000  Level Indianapolis Center
Sat 09:33:42 PM 39.9189 -81.5619 105° East 523 602 39,000  Level Indianapolis Center
Sat 09:34:43 PM 39.8792 -81.3689 105° East 523 602 39,000  Level Indianapolis Center
Sat 09:35:44 PM 39.8422 -81.1864 105° East 523 602 39,000  Level Indianapolis Center
Sat 09:36:45 PM 39.8033 -81.0044 105° East 523 602 39,000  Level Indianapolis Center
Sat 09:37:37 PM 39.7728 -80.8594 105° East 523 602 39,000  Level Cleveland Center
Sat 09:38:38 PM 39.7347 -80.6803 105° East 522 601 39,000  Level Cleveland Center
Sat 09:39:40 PM 39.6883 -80.4642 106° East 522 601 39,000 -537 Level Cleveland Center
Sat 09:40:41 PM 39.6489 -80.2850 106° East 522 601 37,900 -1,820 Descending Cleveland Center
Sat 09:41:42 PM 39.6114 -80.1081 105° East 521 600 35,300 -2,754 Descending Cleveland Center
Sat 09:42:43 PM 39.5706 -79.9378 107° East 509 586 32,300 -2,607 Descending Cleveland Center
Sat 09:43:44 PM 39.5367 -79.7625 104° East 508 585 30,000 -2,262 Descending Cleveland Center
Sat 09:44:45 PM 39.5075 -79.5950 103° East 490 564 27,700 -1,475 Descending Cleveland Center
Sat 09:45:46 PM 39.4789 -79.4311 103° East 475 547 27,000 -1,268 Descending Cleveland Center
Sat 09:46:48 PM 39.4497 -79.2706 103° East 468 539 25,100 -2,146 Descending Cleveland Center
Sat 09:47:49 PM 39.4158 -79.0836 103° East 451 519 22,600 -2,115 Descending Cleveland Center
Sat 09:48:50 PM 39.3933 -78.9547 103° East 439 505 20,800 -1,854 Descending Cleveland Center
Sat 09:49:52 PM 39.3667 -78.8022 103° East 425 489 18,800 -1,950 Descending Washington Center
Sat 09:50:50 PM 39.3411 -78.6642 103° East 404 465 16,900 -2,017 Descending Washington Center
Sat 09:51:51 PM 39.3175 -78.5292 103° East 386 444 14,800 -1,967 Descending Washington Center
Sat 09:52:52 PM 39.2914 -78.3967 104° East 380 437 12,900 -1,815 Descending Washington Center
Sat 09:53:50 PM 39.2439 -78.2822 118° Southeast 370 426 11,200 -1,261 Descending Washington Center
Sat 09:54:51 PM 39.2172 -78.1714 107° East 348 400 10,400 -1,033 Descending Washington Center
Sat 09:55:52 PM 39.2236 -78.0619 86° East 316 364 9,100 -1,350 Descending Washington Center
Sat 09:56:51 PM 39.2281 -77.9522 87° East 311 358 7,700 -1,500 Descending Washington Center
Sat 09:58:40 PM 39.2333 -77.7500 88° East 290 334 4,900 -1,440 Descending Potomac TRACON
Sat 09:59:46 PM 39.2167 -77.6333 100° East 282 325 3,500 -905 Descending Potomac TRACON
Sat 10:00:46 PM 39.1833 -77.5500 117° Southeast 262 302 3,000 -250 Descending Potomac TRACON
Sat 10:01:46 PM 39.1500 -77.4833 123° Southeast 233 268 3,000 -150 Level Potomac TRACON
Sat 10:02:46 PM 39.1167 -77.4500 142° Southeast 179 206 2,700 -500 Descending Potomac TRACON
Sat 10:03:46 PM 39.0667 -77.4500 180° South 162 186 2,000 -700 Descending Potomac TRACON
Sat 10:04:46 PM 39.0333 -77.4667 201° Southwest 127 146 1,300 -619 Descending Potomac TRACON
Sat 10:05:52 PM 38.9833 -77.4667 180° South 126 145 700 -545 Descending Potomac TRACON
Sat 10:07:00 PM 38.9474 -77.4599 165° South  Level Estimated

Login

Don't have an account? Register now (free) for customized features, flight alerts, and more!